Time;durP1;ratioP1;P1;durP2;ratioP2;P2;SDS_P1;SDS_P2;PMS_P1;PMS_P2;Temp;Humidity;BMP_temperature;BMP_pressure;BME280_temperature;BME280_humidity;BME280_pressure;Samples;Min_cycle;Max_cycle;Signal;HPM_P1;HPM_P2
2022/06/10 00:00:37;;;;;;;1.42;1.15;;;;;;;7.16;84.73;100871.72;5005232;28;20057;-59
2022/06/10 00:03:09;;;;;;;2.08;1.30;;;;;;;7.48;84.85;100936.09;5006101;28;20050;-58
2022/06/10 00:05:40;;;;;;;1.98;1.48;;;;;;;7.49;85.21;100938.72;5012900;28;20058;-59
2022/06/10 00:08:13;;;;;;;2.15;1.30;;;;;;;7.51;85.05;100946.50;5008756;28;20049;-59
2022/06/10 00:10:46;;;;;;;2.08;1.30;;;;;;;7.63;85.44;100946.59;5008008;28;20412;-61
2022/06/10 00:13:18;;;;;;;1.98;1.50;;;;;;;7.60;85.65;100917.97;5007255;28;20113;-59
2022/06/10 00:15:49;;;;;;;2.65;1.65;;;;;;;7.25;85.92;100845.81;5007673;28;20096;-59
2022/06/10 00:18:20;;;;;;;3.40;1.50;;;;;;;7.78;85.09;100936.28;5007428;28;20046;-59
2022/06/10 00:20:51;;;;;;;1.65;1.20;;;;;;;7.84;85.21;100939.78;5005405;28;20053;-58
2022/06/10 00:23:21;;;;;;;1.75;1.40;;;;;;;7.86;85.33;100927.66;5004879;28;20054;-58
2022/06/10 00:25:53;;;;;;;3.13;1.50;;;;;;;7.94;85.35;100920.78;5005420;28;20290;-58
2022/06/10 00:28:24;;;;;;;1.58;1.30;;;;;;;8.00;85.00;100926.00;5005735;28;20058;-58
2022/06/10 00:30:55;;;;;;;3.83;1.38;;;;;;;8.20;85.72;100928.69;5004846;28;20443;-59
2022/06/10 00:33:26;;;;;;;2.28;1.40;;;;;;;8.30;85.40;100934.78;5005580;28;20371;-58
2022/06/10 00:35:56;;;;;;;1.85;1.40;;;;;;;8.13;84.93;100906.94;5007239;28;20057;-58
2022/06/10 00:38:27;;;;;;;2.63;1.70;;;;;;;8.33;84.58;100937.41;5010606;28;20288;-58
2022/06/10 00:41:00;;;;;;;2.58;1.50;;;;;;;8.37;84.81;100931.34;5008851;28;20054;-59
2022/06/10 00:43:33;;;;;;;1.98;1.70;;;;;;;8.24;84.44;100919.13;5008180;28;20100;-59
2022/06/10 00:46:16;;;;;;;1.90;1.48;;;;;;;8.28;83.45;100939.97;5008634;28;20061;-59
2022/06/10 00:48:57;;;;;;;1.88;1.20;;;;;;;8.20;84.12;100950.38;5009210;28;20062;-58
2022/06/10 00:51:35;;;;;;;1.40;1.20;;;;;;;8.15;84.54;100962.50;5007078;28;20116;-59
2022/06/10 00:54:12;;;;;;;2.05;1.25;;;;;;;8.16;85.03;100969.47;5013155;28;20041;-59
2022/06/10 00:56:48;;;;;;;1.52;1.17;;;;;;;8.13;84.78;100969.41;5010266;28;20096;-60
2022/06/10 00:59:23;;;;;;;1.55;1.42;;;;;;;7.61;85.20;100878.09;5012850;28;20108;-59
2022/06/10 01:01:56;;;;;;;1.40;1.20;;;;;;;7.97;85.86;100944.19;5010005;28;20046;-58
2022/06/10 01:04:29;;;;;;;2.40;1.20;;;;;;;8.09;86.11;100964.22;5005530;28;20061;-58
2022/06/10 01:06:59;;;;;;;1.30;1.13;;;;;;;8.12;86.13;100962.50;5005649;28;20054;-58
2022/06/10 01:09:32;;;;;;;2.20;1.42;;;;;;;8.20;86.80;100971.19;5005336;28;20054;-58
2022/06/10 01:12:35;;;;;;;5.07;3.40;;;;;;;8.15;86.43;100972.91;5013736;28;20391;-58
2022/06/10 01:15:20;;;;;;;2.83;1.75;;;;;;;7.64;86.23;100875.53;5016602;28;20101;-59
2022/06/10 01:18:03;;;;;;;1.58;1.00;;;;;;;8.06;86.09;100965.03;5016753;28;20080;-59
2022/06/10 01:20:45;;;;;;;1.80;1.00;;;;;;;8.06;86.61;100972.84;5022304;28;20081;-59
2022/06/10 01:23:44;;;;;;;1.90;1.38;;;;;;;8.10;87.01;100959.00;5022838;28;20058;-59
2022/06/10 01:30:40;;;;;;;1.55;1.30;;;;;;;8.05;86.92;100960.72;5021693;28;20053;-59
2022/06/10 01:33:29;;;;;;;1.73;1.30;;;;;;;8.00;87.16;100957.22;5022587;28;20112;-59
2022/06/10 01:36:06;;;;;;;1.58;1.20;;;;;;;8.04;87.65;100943.38;5025279;28;20061;-59
2022/06/10 01:38:45;;;;;;;1.92;1.25;;;;;;;8.10;87.45;100956.41;5025895;28;20260;-58
2022/06/10 01:41:24;;;;;;;1.70;1.20;;;;;;;8.26;88.13;100948.66;5024400;28;20045;-59
2022/06/10 01:44:02;;;;;;;1.45;1.23;;;;;;;8.24;87.30;100950.38;5025892;28;20124;-59
2022/06/10 01:46:37;;;;;;;1.35;1.20;;;;;;;8.31;86.99;100957.34;5024673;28;20053;-59
2022/06/10 01:49:11;;;;;;;1.77;1.40;;;;;;;8.24;86.86;100939.97;5023466;28;20068;-59
2022/06/10 01:51:56;;;;;;;3.70;1.52;;;;;;;8.41;87.18;100946.13;5023572;28;20065;-59
2022/06/10 01:54:34;;;;;;;1.70;1.17;;;;;;;8.66;87.21;100948.81;5022641;28;20340;-59
2022/06/10 01:57:09;;;;;;;1.77;1.30;;;;;;;8.62;86.80;100930.59;5023786;28;20061;-58
2022/06/10 01:59:44;;;;;;;1.58;1.30;;;;;;;8.88;87.08;100940.19;5025836;28;20058;-58
2022/06/10 02:02:20;;;;;;;1.52;1.30;;;;;;;8.89;85.95;100941.94;5025037;28;20113;-58
2022/06/10 02:04:55;;;;;;;1.42;1.10;;;;;;;8.88;86.26;100945.38;5025027;28;20061;-58
2022/06/10 02:07:30;;;;;;;2.72;1.30;;;;;;;8.85;86.10;100946.25;5025647;28;20061;-59
2022/06/10 02:10:03;;;;;;;1.73;1.30;;;;;;;8.84;86.10;100948.88;5025774;28;20379;-58
2022/06/10 02:12:39;;;;;;;1.90;1.25;;;;;;;8.82;85.80;100938.44;5025558;28;20065;-58
2022/06/10 02:15:16;;;;;;;1.75;1.42;;;;;;;8.90;85.80;100933.22;5025479;28;20061;-58
2022/06/10 02:17:53;;;;;;;1.90;1.35;;;;;;;9.00;85.57;100934.97;5025311;28;20045;-58
2022/06/10 02:20:26;;;;;;;1.52;1.30;;;;;;;9.14;85.75;100937.59;5025306;28;20129;-58
2022/06/10 02:23:00;;;;;;;2.78;1.30;;;;;;;9.25;85.43;100940.22;5025215;28;20045;-58
2022/06/10 02:25:36;;;;;;;2.13;1.30;;;;;;;9.31;85.46;100935.00;5025488;28;20061;-59
2022/06/10 02:28:11;;;;;;;1.60;1.35;;;;;;;9.40;85.38;100927.16;5025110;28;20359;-58
2022/06/10 02:30:48;;;;;;;1.33;1.00;;;;;;;9.42;84.70;100938.47;5025215;28;20677;-57
2022/06/10 02:33:20;;;;;;;1.02;0.95;;;;;;;9.45;85.01;100929.75;5022930;28;20065;-58
2022/06/10 02:35:56;;;;;;;2.00;1.10;;;;;;;9.54;84.69;100934.13;5023337;28;20319;-59
2022/06/10 02:38:36;;;;;;;1.50;1.20;;;;;;;9.53;84.61;100930.63;5024600;28;20091;-59
2022/06/10 02:41:11;;;;;;;;;;;;;;;9.48;84.77;100928.03;5025290;28;20053;-58
2022/06/10 02:43:49;;;;;;;1.33;0.90;;;;;;;8.98;84.76;100837.66;5024641;28;19972;-59
2022/06/10 02:46:24;;;;;;;3.03;1.20;;;;;;;9.58;84.29;100933.22;5024593;28;20053;-58
2022/06/10 02:49:04;;;;;;;1.00;0.90;;;;;;;9.68;84.14;100929.72;5024465;28;20190;-58
2022/06/10 02:51:35;;;;;;;1.85;1.00;;;;;;;9.63;83.93;100926.25;5024806;28;20065;-59
2022/06/10 02:54:09;;;;;;;1.30;1.20;;;;;;;9.64;84.19;100939.31;5024215;28;20129;-59
2022/06/10 02:56:40;;;;;;;1.15;1.00;;;;;;;9.67;84.42;100928.00;5024222;28;20284;-58
2022/06/10 03:02:22;;;;;;;3.45;2.47;;;;;;;9.38;85.10;100917.59;5024420;28;20062;-59
2022/06/10 03:05:07;;;;;;;1.20;1.10;;;;;;;9.40;84.81;100929.75;5022187;28;20095;-59
2022/06/10 03:07:50;;;;;;;1.20;1.10;;;;;;;9.36;85.22;100925.44;5023902;28;20052;-59
2022/06/10 03:10:27;;;;;;;1.85;1.40;;;;;;;9.32;85.82;100931.50;5022833;28;20062;-60
2022/06/10 03:13:09;;;;;;;3.33;1.60;;;;;;;9.30;86.46;100933.25;5022860;28;20128;-60
2022/06/10 03:15:55;;;;;;;2.25;1.48;;;;;;;9.31;86.94;100929.78;5023532;28;20054;-59
2022/06/10 03:18:36;;;;;;;2.10;1.65;;;;;;;9.27;86.60;100934.13;5022391;28;20085;-58
2022/06/10 03:21:17;;;;;;;1.98;1.15;;;;;;;9.25;86.43;100940.22;5023379;28;20073;-58
2022/06/10 03:23:58;;;;;;;1.65;1.40;;;;;;;9.23;86.76;100941.94;5023280;28;20053;-59
2022/06/10 03:26:41;;;;;;;1.23;1.10;;;;;;;9.24;87.07;100922.84;5022724;28;20603;-59
2022/06/10 03:29:19;;;;;;;1.42;1.30;;;;;;;9.23;87.10;100921.94;5023582;28;20092;-59
2022/06/10 03:31:55;;;;;;;2.28;1.20;;;;;;;9.27;86.46;100922.81;5020333;28;20057;-59
2022/06/10 03:34:29;;;;;;;3.90;1.20;;;;;;;9.25;86.60;100914.13;5023200;28;20061;-59
2022/06/10 03:37:03;;;;;;;3.78;1.55;;;;;;;9.30;86.67;100922.81;5023127;28;20218;-59
2022/06/10 03:39:34;;;;;;;1.77;1.30;;;;;;;9.33;87.16;100916.72;5022473;28;20053;-59
2022/06/10 03:42:09;;;;;;;2.55;1.40;;;;;;;9.27;86.46;100928.91;5024196;28;21030;-59
2022/06/10 03:44:40;;;;;;;2.63;1.20;;;;;;;9.26;87.02;100926.28;5022861;28;20045;-59
2022/06/10 03:47:17;;;;;;;1.77;0.90;;;;;;;9.15;86.72;100908.03;5023827;28;20068;-58
2022/06/10 03:49:57;;;;;;;1.83;1.20;;;;;;;9.31;87.62;100934.09;5023690;28;20124;-59
2022/06/10 03:52:33;;;;;;;1.65;1.20;;;;;;;9.29;87.59;100932.38;5023869;28;20641;-59
2022/06/10 03:55:04;;;;;;;1.50;1.10;;;;;;;9.21;87.27;100933.25;5023973;28;20104;-59
2022/06/10 03:57:34;;;;;;;1.30;1.10;;;;;;;9.05;87.33;100933.25;5022996;28;20095;-59
2022/06/10 04:00:07;;;;;;;3.83;1.35;;;;;;;8.93;87.59;100928.03;5023717;28;20091;-59
2022/06/10 04:02:37;;;;;;;1.75;1.30;;;;;;;8.90;87.75;100933.22;5023933;28;20057;-59
2022/06/10 04:05:09;;;;;;;4.45;1.30;;;;;;;8.92;88.10;100921.09;5023621;28;20059;-59
2022/06/10 04:07:42;;;;;;;0.95;0.90;;;;;;;8.82;88.17;100916.72;5023361;28;20348;-60
2022/06/10 04:10:16;;;;;;;2.10;1.00;;;;;;;8.85;88.23;100920.19;5023347;28;20344;-60
2022/06/10 04:12:47;;;;;;;1.65;1.33;;;;;;;8.83;88.46;100913.25;5023085;28;20064;-58
2022/06/10 04:15:18;;;;;;;1.90;1.45;;;;;;;8.88;88.19;100934.97;5022435;28;20099;-58
2022/06/10 04:17:51;;;;;;;1.30;1.15;;;;;;;8.81;88.58;100917.56;5021765;28;20073;-60
2022/06/10 04:20:24;;;;;;;2.03;1.40;;;;;;;8.91;88.46;100944.53;5021734;28;20053;-60
2022/06/10 04:22:56;;;;;;;1.70;1.60;;;;;;;8.96;88.69;100940.19;5021441;28;20069;-60
2022/06/10 04:25:27;;;;;;;2.67;1.30;;;;;;;8.91;88.89;100914.16;5022106;28;20065;-60
2022/06/10 04:27:58;;;;;;;1.38;1.20;;;;;;;9.15;89.22;100928.03;5022136;28;20061;-60
2022/06/10 04:30:31;;;;;;;2.00;1.17;;;;;;;9.20;89.36;100931.53;5021846;28;20057;-59
2022/06/10 04:33:02;;;;;;;1.20;1.10;;;;;;;9.11;89.06;100926.28;5022064;28;20049;-60
2022/06/10 04:35:33;;;;;;;2.05;1.50;;;;;;;9.01;88.99;100915.88;5022070;28;20076;-58
2022/06/10 04:38:07;;;;;;;1.88;1.38;;;;;;;9.09;88.93;100928.06;5023526;28;20057;-59
2022/06/10 04:40:40;;;;;;;3.10;1.23;;;;;;;8.83;88.85;100910.63;5023452;28;20697;-59
2022/06/10 04:43:10;;;;;;;3.05;1.20;;;;;;;8.87;89.29;100928.03;5023125;28;20403;-59
2022/06/10 04:45:44;;;;;;;2.05;1.23;;;;;;;8.76;89.60;100919.31;5023262;28;20441;-59
2022/06/10 04:48:16;;;;;;;2.95;1.50;;;;;;;8.89;89.87;100926.28;5022324;28;20103;-59
2022/06/10 04:50:47;;;;;;;3.35;1.10;;;;;;;8.94;89.33;100927.16;5022884;28;20229;-59
2022/06/10 04:53:20;;;;;;;2.30;0.90;;;;;;;8.83;89.56;100921.06;5023098;28;20236;-59
2022/06/10 04:55:51;;;;;;;1.65;1.10;;;;;;;8.85;89.75;100929.75;5022749;28;20054;-60
2022/06/10 04:58:21;;;;;;;1.73;1.10;;;;;;;8.85;89.83;100934.97;5023103;28;20226;-60
2022/06/10 05:00:52;;;;;;;1.63;1.40;;;;;;;8.75;89.73;100938.44;5023033;28;20050;-60
2022/06/10 05:03:22;;;;;;;1.90;1.00;;;;;;;8.69;89.52;100934.09;5023265;28;20529;-59
2022/06/10 05:05:53;;;;;;;0.98;0.95;;;;;;;8.72;90.10;100943.63;5023115;28;20288;-60
2022/06/10 05:08:25;;;;;;;1.13;0.93;;;;;;;8.69;89.56;100941.91;5022831;28;20053;-60
2022/06/10 05:10:56;;;;;;;1.00;0.90;;;;;;;8.66;89.80;100939.25;5026783;28;21000;-60
2022/06/10 05:13:26;;;;;;;0.93;0.90;;;;;;;8.68;90.08;100941.88;5026500;28;20113;-60
2022/06/10 05:15:58;;;;;;;5.18;1.27;;;;;;;8.54;89.98;100929.69;5026758;28;20092;-60
2022/06/10 05:18:29;;;;;;;1.75;1.15;;;;;;;8.64;90.44;100947.09;5026611;28;20057;-60
2022/06/10 05:21:00;;;;;;;2.30;1.40;;;;;;;8.24;90.42;100882.69;5026391;28;20068;-59
2022/06/10 05:23:32;;;;;;;2.28;1.02;;;;;;;8.47;90.32;100940.09;5026411;28;20154;-60
2022/06/10 05:26:03;;;;;;;0.80;0.80;;;;;;;8.51;90.12;100945.34;5026375;28;20041;-59
2022/06/10 05:28:37;;;;;;;1.58;1.10;;;;;;;8.45;90.29;100945.28;5026669;28;20053;-59
2022/06/10 05:31:08;;;;;;;1.80;1.10;;;;;;;8.45;90.81;100940.09;5026676;28;20527;-59
2022/06/10 05:36:26;;;;;;;1.48;0.90;;;;;;;8.44;90.64;100943.56;5026322;28;20059;-60
2022/06/10 05:38:58;;;;;;;0.80;0.80;;;;;;;8.40;90.49;100936.59;5026326;28;20066;-59
2022/06/10 05:44:16;;;;;;;1.67;0.95;;;;;;;8.31;90.74;100942.63;5026089;28;20088;-60
2022/06/10 05:46:47;;;;;;;1.52;0.80;;;;;;;8.26;90.82;100930.44;5026157;28;20049;-59
2022/06/10 05:49:17;;;;;;;2.45;1.00;;;;;;;8.29;90.83;100930.47;5025873;28;20368;-60
2022/06/10 05:51:48;;;;;;;6.20;1.10;;;;;;;8.20;90.64;100929.53;5026009;28;20362;-60
2022/06/10 05:54:20;;;;;;;1.10;0.80;;;;;;;8.24;91.01;100935.66;5025780;28;20053;-60
2022/06/10 05:56:51;;;;;;;2.17;0.70;;;;;;;8.16;90.74;100935.63;5025841;28;20069;-60
2022/06/10 05:59:22;;;;;;;1.10;0.85;;;;;;;8.12;91.03;100931.25;5025827;28;20056;-59
2022/06/10 06:01:53;;;;;;;1.77;1.10;;;;;;;8.10;91.05;100927.78;5025681;28;20108;-59
2022/06/10 06:04:24;;;;;;;14.75;7.85;;;;;;;8.09;91.36;100926.03;5025518;28;20057;-59
2022/06/10 06:06:54;;;;;;;23.60;11.75;;;;;;;8.06;91.07;100925.13;5025767;28;20096;-60
2022/06/10 06:09:27;;;;;;;17.90;9.07;;;;;;;7.86;90.99;100896.44;5025719;28;20076;-59
2022/06/10 06:11:58;;;;;;;3.78;2.20;;;;;;;7.94;90.91;100931.19;5025641;28;20070;-59
2022/06/10 06:14:29;;;;;;;2.65;1.75;;;;;;;7.80;91.06;100917.22;5025331;28;20062;-59
2022/06/10 06:17:02;;;;;;;5.75;3.30;;;;;;;7.95;91.45;100936.38;5025321;28;20100;-59
2022/06/10 06:19:34;;;;;;;9.05;5.82;;;;;;;7.92;91.26;100948.50;5025089;28;20069;-59
2022/06/10 06:22:05;;;;;;;5.00;2.20;;;;;;;7.82;91.17;100946.72;5024863;28;20508;-59
2022/06/10 06:24:40;;;;;;;4.30;3.00;;;;;;;7.73;91.25;100951.00;5025697;28;20373;-59
2022/06/10 06:27:16;;;;;;;6.13;2.60;;;;;;;7.60;91.48;100956.97;5025634;28;20108;-59
2022/06/10 06:29:47;;;;;;;5.22;2.13;;;;;;;7.56;91.85;100956.09;5025345;28;20054;-59
2022/06/10 06:32:17;;;;;;;5.15;2.63;;;;;;;7.58;91.82;100953.50;5025063;28;20053;-59
2022/06/10 06:34:48;;;;;;;2.38;1.60;;;;;;;7.59;91.37;100950.06;5025141;28;20108;-59
2022/06/10 06:37:19;;;;;;;4.90;1.95;;;;;;;7.57;91.89;100957.81;5025032;28;20104;-59
2022/06/10 06:39:51;;;;;;;2.83;1.60;;;;;;;7.57;91.95;100951.75;5025125;28;20244;-59
2022/06/10 06:42:22;;;;;;;2.58;1.20;;;;;;;7.60;91.95;100956.97;5023291;28;20116;-60
2022/06/10 06:44:52;;;;;;;2.80;1.42;;;;;;;7.47;91.75;100955.16;5024333;28;20058;-59
2022/06/10 06:47:43;;;;;;;11.55;3.70;;;;;;;7.55;92.46;100958.69;5024197;28;20613;-59
2022/06/10 06:50:18;;;;;;;2.05;1.33;;;;;;;7.51;92.13;100951.69;5024603;28;20057;-59
2022/06/10 06:52:49;;;;;;;2.03;1.25;;;;;;;7.52;91.84;100948.25;5024727;28;20065;-59
2022/06/10 06:55:22;;;;;;;1.38;0.93;;;;;;;7.41;91.87;100944.69;5024623;28;20053;-59
2022/06/10 06:57:52;;;;;;;2.00;1.38;;;;;;;7.40;92.09;100958.56;5024562;28;20065;-59
2022/06/10 07:00:26;;;;;;;1.15;0.98;;;;;;;7.26;92.18;100941.16;5023611;28;20053;-59
2022/06/10 07:02:56;;;;;;;1.65;1.10;;;;;;;7.32;92.32;100964.56;5024769;28;20735;-59
2022/06/10 07:05:27;;;;;;;2.72;1.60;;;;;;;7.38;92.74;100955.09;5024605;28;20066;-59
2022/06/10 07:07:57;;;;;;;9.20;4.05;;;;;;;7.34;92.32;100970.66;5024750;28;20947;-59
2022/06/10 07:10:30;;;;;;;5.65;2.97;;;;;;;7.34;92.60;100969.81;5024487;28;20057;-59
2022/06/10 07:13:01;;;;;;;8.43;3.80;;;;;;;7.31;92.16;100973.25;5023929;28;20064;-59
2022/06/10 07:15:31;;;;;;;8.25;3.42;;;;;;;7.32;92.45;100972.38;5024393;28;20155;-60
2022/06/10 07:18:02;;;;;;;3.25;1.80;;;;;;;7.24;92.03;100971.44;5024026;28;20434;-59
2022/06/10 07:20:35;;;;;;;1.70;1.25;;;;;;;6.88;92.02;100933.84;5023533;28;20046;-59
2022/06/10 07:23:06;;;;;;;5.45;1.60;;;;;;;7.08;92.24;100978.22;5024374;28;20062;-59
2022/06/10 07:25:39;;;;;;;1.80;1.45;;;;;;;7.02;92.14;100969.50;5023782;28;20062;-59
2022/06/10 07:28:11;;;;;;;4.28;1.77;;;;;;;6.94;91.96;100958.16;5024340;28;20240;-60
2022/06/10 07:30:42;;;;;;;4.10;1.52;;;;;;;6.82;92.41;100949.41;5024345;28;20053;-59
2022/06/10 07:33:13;;;;;;;4.50;1.70;;;;;;;6.77;92.22;100951.09;5023972;28;20048;-59
2022/06/10 07:35:44;;;;;;;3.03;2.00;;;;;;;6.79;92.75;100954.56;5023445;28;20075;-59
2022/06/10 07:38:14;;;;;;;4.35;2.42;;;;;;;6.79;92.72;100959.75;5024056;28;20152;-59
2022/06/10 07:43:42;;;;;;;3.40;2.17;;;;;;;6.63;92.76;100952.66;5023174;28;20088;-60
2022/06/10 07:46:15;;;;;;;5.18;2.42;;;;;;;6.58;92.71;100956.94;5023789;28;20068;-59
2022/06/10 07:48:47;;;;;;;6.10;2.80;;;;;;;6.52;93.13;100962.06;5022919;28;20053;-59
2022/06/10 07:51:18;;;;;;;5.18;2.35;;;;;;;6.52;92.87;100964.66;5023323;28;20069;-59
2022/06/10 07:53:49;;;;;;;6.65;2.72;;;;;;;6.46;93.12;100957.66;5022275;28;20061;-59
2022/06/10 07:56:23;;;;;;;6.30;3.22;;;;;;;6.43;93.29;100950.69;5023239;28;20057;-60
2022/06/10 07:58:53;;;;;;;4.95;2.30;;;;;;;6.46;93.44;100945.56;5022699;28;20133;-59
2022/06/10 08:01:24;;;;;;;6.03;1.98;;;;;;;6.40;93.21;100955.88;5021266;28;20573;-59
2022/06/10 08:03:57;;;;;;;5.32;1.70;;;;;;;6.36;93.46;100964.47;5021714;28;20042;-59
2022/06/10 08:06:30;;;;;;;7.28;2.00;;;;;;;6.36;93.68;100972.25;5019207;28;20115;-58
2022/06/10 08:09:02;;;;;;;8.68;2.00;;;;;;;6.30;93.36;100964.41;5022838;28;20389;-58
2022/06/10 08:11:35;;;;;;;5.70;2.22;;;;;;;6.25;93.12;100968.66;5022979;28;20057;-59
2022/06/10 08:14:06;;;;;;;4.07;1.98;;;;;;;6.24;93.80;100972.09;5023090;28;20083;-59
2022/06/10 08:16:37;;;;;;;5.63;2.13;;;;;;;6.22;93.70;100976.41;5022630;28;20477;-59
2022/06/10 08:19:08;;;;;;;5.25;1.92;;;;;;;6.25;93.49;100976.44;5022772;28;20088;-59
2022/06/10 08:24:26;;;;;;;3.97;1.75;;;;;;;6.23;93.57;100980.75;5022829;28;20049;-59
2022/06/10 08:26:58;;;;;;;4.38;2.25;;;;;;;6.18;93.21;100990.19;5022750;28;20107;-60
2022/06/10 08:29:28;;;;;;;3.72;1.95;;;;;;;6.13;93.01;100971.09;5022644;28;20053;-59
2022/06/10 08:31:59;;;;;;;3.15;1.83;;;;;;;6.19;93.77;100991.91;5023114;28;20057;-58
2022/06/10 08:34:30;;;;;;;3.22;1.73;;;;;;;6.19;93.66;100978.94;5022753;28;20054;-59
2022/06/10 08:37:01;;;;;;;6.00;2.15;;;;;;;6.21;93.39;100979.84;5022608;28;20092;-59
2022/06/10 08:39:32;;;;;;;3.70;1.85;;;;;;;6.15;93.16;100991.03;5022895;28;20117;-58
2022/06/10 08:42:20;;;;;;;6.43;2.10;;;;;;;6.18;93.38;100996.25;5022878;28;20068;-58
2022/06/10 08:44:54;;;;;;;4.57;2.70;;;;;;;6.20;93.08;100988.50;5025184;28;20064;-59
2022/06/10 08:47:52;;;;;;;4.95;1.90;;;;;;;6.16;93.29;101002.28;5027113;28;20053;-58
2022/06/10 08:50:56;;;;;;;4.72;1.92;;;;;;;6.17;93.26;100998.84;5026049;28;20108;-59
2022/06/10 08:54:00;;;;;;;6.07;3.30;;;;;;;6.20;93.59;101001.47;5017051;28;20061;-59
2022/06/10 08:56:34;;;;;;;7.80;2.60;;;;;;;6.08;93.17;100988.34;5002774;28;20092;-58
2022/06/10 08:59:15;;;;;;;4.78;2.20;;;;;;;6.13;93.17;100989.25;5026859;28;20065;-59
2022/06/10 09:01:52;;;;;;;5.18;3.10;;;;;;;6.18;93.40;100995.38;5026257;28;20426;-57
2022/06/10 09:04:35;;;;;;;7.57;3.15;;;;;;;6.17;93.37;100996.25;5026312;28;20324;-59
2022/06/10 09:07:13;;;;;;;1.83;1.45;;;;;;;6.16;93.58;100986.69;5026806;28;20049;-58
2022/06/10 09:09:44;;;;;;;0.98;0.95;;;;;;;6.15;93.30;100984.97;5027082;28;20108;-58
2022/06/10 09:12:21;;;;;;;1.25;0.90;;;;;;;6.09;93.33;100995.25;5026428;28;20076;-58
2022/06/10 09:14:58;;;;;;;1.35;1.10;;;;;;;6.03;93.54;100986.53;5026416;28;20049;-58
2022/06/10 09:17:34;;;;;;;4.30;1.25;;;;;;;6.02;94.01;100987.41;5026159;28;20061;-58
2022/06/10 09:20:11;;;;;;;2.85;1.70;;;;;;;5.98;93.82;100977.81;5026336;28;20050;-58
2022/06/10 09:22:47;;;;;;;2.60;1.70;;;;;;;6.00;93.86;100999.47;5026251;28;20077;-58
2022/06/10 09:25:24;;;;;;;1.52;1.30;;;;;;;5.79;93.67;100978.38;5026069;28;20045;-58
2022/06/10 09:27:58;;;;;;;2.30;1.63;;;;;;;5.83;94.15;100994.00;5026028;28;20062;-58
2022/06/10 09:30:35;;;;;;;3.50;1.52;;;;;;;5.89;94.54;101008.81;5025910;28;20046;-58
2022/06/10 09:33:12;;;;;;;3.40;2.45;;;;;;;5.84;94.40;100989.69;5026278;28;20056;-58
2022/06/10 09:35:51;;;;;;;3.45;2.17;;;;;;;5.72;94.35;100973.97;5026248;28;20061;-59
2022/06/10 09:38:29;;;;;;;5.93;2.53;;;;;;;5.80;94.65;100990.50;5026097;28;20053;-60
2022/06/10 09:41:10;;;;;;;4.55;1.88;;;;;;;5.84;94.60;101005.25;5025976;28;20053;-59
2022/06/10 09:44:04;;;;;;;3.88;1.73;;;;;;;5.78;94.61;101015.53;5026048;28;20095;-60
2022/06/10 09:47:00;;;;;;;3.75;1.98;;;;;;;5.78;94.78;101020.72;5025908;28;20053;-60
2022/06/10 09:49:45;;;;;;;5.57;2.05;;;;;;;5.83;94.77;101019.06;5025699;28;20129;-59
2022/06/10 09:52:20;;;;;;;2.78;1.73;;;;;;;5.72;94.23;101005.09;5025527;28;20052;-59
2022/06/10 09:55:15;;;;;;;2.95;1.60;;;;;;;5.75;94.33;101012.91;5024901;28;20053;-59
2022/06/10 09:58:06;;;;;;;2.50;1.50;;;;;;;5.78;94.87;101015.53;5025428;28;20757;-59
2022/06/10 10:00:43;;;;;;;2.60;1.98;;;;;;;5.82;94.73;101019.94;5025527;28;20049;-59
2022/06/10 10:03:34;;;;;;;3.15;1.95;;;;;;;5.84;94.87;101020.81;5025592;28;20092;-59
2022/06/10 10:06:20;;;;;;;5.82;2.40;;;;;;;5.76;94.40;101017.22;5025581;28;20336;-59
2022/06/10 10:09:00;;;;;;;5.05;2.10;;;;;;;5.74;94.37;101018.91;5025229;28;20060;-59
2022/06/10 10:11:41;;;;;;;2.70;1.80;;;;;;;5.71;94.69;101030.13;5023545;28;20041;-59
2022/06/10 10:14:21;;;;;;;3.53;1.80;;;;;;;5.73;94.58;101032.75;5025627;28;20058;-59
2022/06/10 10:17:10;;;;;;;2.03;1.40;;;;;;;5.74;94.90;101039.66;5023684;28;20072;-59
2022/06/10 10:19:55;;;;;;;4.95;2.20;;;;;;;5.72;94.87;101036.19;5025104;28;20057;-60
2022/06/10 10:22:59;;;;;;;2.58;1.55;;;;;;;5.74;94.69;101026.69;5025160;28;20577;-59
2022/06/10 10:25:30;;;;;;;1.95;1.45;;;;;;;5.69;94.92;101012.78;5024909;28;20210;-59
2022/06/10 10:28:01;;;;;;;1.40;1.10;;;;;;;5.70;95.09;101022.34;5024447;28;20367;-59
2022/06/10 10:30:37;;;;;;;1.33;1.02;;;;;;;5.59;94.82;101004.88;5024708;28;20054;-58
2022/06/10 10:33:11;;;;;;;2.53;1.33;;;;;;;5.60;94.91;101001.44;5023885;28;20068;-58
2022/06/10 10:35:45;;;;;;;1.13;0.93;;;;;;;5.66;95.15;101025.72;5023830;28;20058;-58
2022/06/10 10:38:31;;;;;;;1.88;1.20;;;;;;;5.62;94.97;101020.50;5023228;28;20056;-58
2022/06/10 10:41:13;;;;;;;1.35;1.25;;;;;;;5.63;95.06;101022.22;5024578;28;20219;-58
2022/06/10 10:43:46;;;;;;;1.10;1.00;;;;;;;5.67;95.11;101019.69;5023368;28;20053;-58
2022/06/10 10:46:36;;;;;;;3.42;1.58;;;;;;;5.43;94.65;100964.00;5021487;28;20061;-58
2022/06/10 10:49:21;;;;;;;3.65;1.33;;;;;;;5.58;95.20;100997.94;5023678;28;20053;-58
2022/06/10 10:51:55;;;;;;;2.55;1.70;;;;;;;5.50;95.28;100993.50;5024275;28;20248;-57
2022/06/10 10:54:33;;;;;;;7.07;1.83;;;;;;;5.49;95.20;100996.91;5022448;28;20061;-58
2022/06/10 10:57:16;;;;;;;3.67;1.58;;;;;;;5.68;95.59;101034.41;5023923;28;20073;-57
2022/06/10 10:59:46;;;;;;;4.15;1.80;;;;;;;5.67;95.46;101022.28;5022691;28;20056;-58
2022/06/10 11:02:34;;;;;;;3.45;1.73;;;;;;;5.69;95.03;101021.47;5024044;28;20084;-58
2022/06/10 11:05:23;;;;;;;2.88;1.60;;;;;;;5.68;95.25;101024.03;5020989;28;20245;-59
2022/06/10 11:08:16;;;;;;;2.90;1.92;;;;;;;5.65;95.14;101018.78;5022634;28;20077;-59
2022/06/10 11:11:12;;;;;;;2.65;1.55;;;;;;;5.71;95.46;101029.25;5021291;28;20054;-58
2022/06/10 11:13:59;;;;;;;2.50;1.50;;;;;;;5.77;95.47;101042.34;5023153;28;20359;-59
2022/06/10 11:16:38;;;;;;;6.93;1.55;;;;;;;5.68;95.05;101024.03;5023122;28;20057;-59
2022/06/10 11:19:21;;;;;;;1.95;1.63;;;;;;;5.55;95.07;101003.09;5023650;28;20061;-58
2022/06/10 11:21:56;;;;;;;1.30;1.20;;;;;;;5.81;95.40;101041.50;5023658;28;20048;-59
2022/06/10 11:24:31;;;;;;;2.10;1.35;;;;;;;5.80;94.80;101042.38;5023298;28;20337;-59
2022/06/10 11:27:04;;;;;;;2.55;1.45;;;;;;;5.73;95.05;101048.31;5022758;28;20453;-59
2022/06/10 11:29:35;;;;;;;2.47;1.20;;;;;;;5.75;95.09;101057.00;5023570;28;20161;-58
2022/06/10 11:32:08;;;;;;;1.15;0.93;;;;;;;5.79;95.25;101059.66;5022145;28;20049;-58
2022/06/10 11:34:43;;;;;;;0.60;0.60;;;;;;;5.78;94.99;101057.03;5022595;28;20049;-59
2022/06/10 11:37:28;;;;;;;0.95;0.80;;;;;;;5.66;95.18;101026.59;5023781;28;20067;-59
2022/06/10 11:40:13;;;;;;;2.70;0.75;;;;;;;5.77;94.80;101060.47;5023662;28;20061;-59
2022/06/10 11:42:48;;;;;;;1.00;0.80;;;;;;;5.71;94.71;101065.56;5023662;28;20060;-58
2022/06/10 11:45:24;;;;;;;0.80;0.60;;;;;;;5.70;94.91;101079.38;5023355;28;20120;-59
2022/06/10 11:47:59;;;;;;;0.70;0.70;;;;;;;5.67;94.91;101074.16;5023228;28;20045;-58
2022/06/10 11:50:36;;;;;;;1.13;0.65;;;;;;;5.56;94.88;101072.22;5023319;28;20065;-58
2022/06/10 11:53:17;;;;;;;0.60;0.60;;;;;;;5.59;95.14;101076.59;5023704;28;20061;-58
2022/06/10 11:59:42;;;;;;;1.13;0.93;;;;;;;5.76;95.77;101082.94;5023396;28;20513;-58
2022/06/10 12:01:42;;;;;;;1.02;0.65;;;;;;;5.44;95.27;101051.28;5022951;28;20056;-58
2022/06/10 12:04:19;;;;;;;0.98;0.60;;;;;;;5.69;94.92;101073.31;5022234;28;20057;-58
2022/06/10 12:06:55;;;;;;;0.68;0.68;;;;;;;5.50;94.77;101050.53;5023383;28;20059;-58
2022/06/10 12:09:31;;;;;;;0.60;0.60;;;;;;;5.58;94.90;101069.66;5023370;28;20059;-59
2022/06/10 12:12:11;;;;;;;0.68;0.50;;;;;;;5.61;94.97;101055.03;5023133;28;20048;-58
2022/06/10 12:14:44;;;;;;;0.70;0.70;;;;;;;5.59;95.38;101071.41;5022929;28;20045;-58
2022/06/10 12:17:21;;;;;;;0.60;0.55;;;;;;;5.69;95.34;101072.44;5022235;28;20514;-58
2022/06/10 12:19:57;;;;;;;0.80;0.60;;;;;;;5.65;94.86;101081.03;5022345;28;20249;-58
2022/06/10 12:22:28;;;;;;;0.85;0.60;;;;;;;5.68;95.10;101092.31;5023041;28;20164;-59
2022/06/10 12:24:59;;;;;;;1.10;0.60;;;;;;;5.65;95.07;101081.03;5023083;28;20060;-59
2022/06/10 12:27:37;;;;;;;0.93;0.80;;;;;;;5.62;95.26;101077.53;5022875;28;20084;-58
2022/06/10 12:30:14;;;;;;;3.03;0.80;;;;;;;5.62;95.13;101071.47;5023086;28;20049;-58
2022/06/10 12:32:51;;;;;;;1.30;0.60;;;;;;;5.70;95.06;101063.81;5022714;28;20065;-59
2022/06/10 12:35:25;;;;;;;0.82;0.75;;;;;;;5.65;95.17;101065.47;5022652;28;20114;-58